x

Rock Of Ages, Mi (roam4) Weather Station

10:00pm - Mon 8th Feb 2016 All times are CST. -6 hours from GMT.

  • Wind
    34mph, 39mph gusts
  • Air Temp 9°f
  • Sea Pressure 1013.8mb
  • Rock Of Ages, Mi
  • Rock Of Ages, Mi

More Historic Weather Station data

Upgrade to MSW Pro to gain access to the past 30 days of data for over 8000 Wavebouys and Weather Stations around the globe.

Join Pro

Comparision Forecast

View Surf forecast
   
Mon 02/08 10:00pm 34 39 mph 1013.8mb 9f
9:00pm 29 32 mph 1014.1mb 9f
8:00pm 30 32 mph 1013.9mb 10f
7:00pm 29 33 mph 1013.6mb 10f
6:00pm 22 25 mph 1013.8mb 11f
5:00pm 26 30 mph 1012.9mb 12f
4:00pm 25 28 mph 1012.5mb 12f
3:00pm 20 24 mph 1012.3mb 10f
2:00pm 21 24 mph 1011.7mb 11f
1:00pm 23 25 mph 1011.5mb 10f
12:00pm 22 25 mph 1011.7mb 10f
11:00am 23 25 mph 1011.9mb 10f
10:00am 24 28 mph 1011.8mb 10f
9:00am 26 29 mph 1011.2mb 9f
8:00am 26 29 mph 1010.8mb 9f
7:00am 30 32 mph 1010mb 9f
6:00am 29 31 mph 1009.4mb 9f
5:00am 30 31 mph 1008.5mb 10f
4:00am 30 32 mph 1007.7mb 11f
3:00am 28 31 mph 1007.3mb 12f
2:00am 29 31 mph 1006.6mb 13f
1:00am 30 33 mph 1005.9mb 15f
12:00am 31 33 mph 1005.3mb 16f
Sun 02/07 11:00pm 31 34 mph 1004.9mb 19f
10:00pm 33 36 mph 1004.6mb 20f
9:00pm 36 38 mph 1004mb 21f
8:00pm 37 40 mph 1003.6mb 22f
7:00pm 38 40 mph 1003.1mb 23f
6:00pm 37 40 mph 1002.7mb 25f
5:00pm 37 39 mph 1001.8mb 28f
4:00pm 24 25 mph 1001.2mb 32f
3:00pm 7
mph
1001.1mb 32f
2:00pm 9
mph
1000.5mb 33f
1:00pm 10 11 mph 1000.5mb 33f
12:00pm 14
mph
1000.6mb 33f
11:00am 15 16 mph 1001mb 34f
10:00am 15
mph
1001.2mb 33f
9:00am 13 14 mph 1001.2mb 34f
8:00am 17 18 mph 1001.3mb 33f
7:00am 20 21 mph 1001.7mb 33f
6:00am 21 22 mph 1002.4mb 32f
5:00am 20 22 mph 1002.7mb 33f
4:00am 21 23 mph 1003mb 33f
3:00am 23 25 mph 1004.1mb 32f
2:00am 23 25 mph 1005mb 32f
1:00am 20 22 mph 1006mb 32f
12:00am 23 25 mph 1006.7mb 32f
Sat 02/06 11:00pm 16 17 mph 1008.3mb 32f
10:00pm 22 23 mph 1009mb 32f
9:00pm 23 24 mph 1010mb 31f
8:00pm 24 28 mph 1010.8mb 32f
7:00pm 20 22 mph 1012.2mb 32f
6:00pm 15 16 mph 1013.6mb 31f
5:00pm 14 17 mph 1014.2mb 30f
4:00pm 13 14 mph 1015mb 30f
3:00pm 14 16 mph 1015.6mb 29f
2:00pm 2
mph
1016.3mb 28f
1:00pm  -  1 mph 1017.3mb 28f
12:00pm 3 5 mph 1017.9mb 28f
11:00am 5 6 mph 1018.7mb 27f
10:00am 8 9 mph 1018.8mb 27f
9:00am 10 11 mph 1019mb 26f
8:00am 8 10 mph 1019.2mb 26f
7:00am 10 11 mph 1019.1mb 26f
6:00am 9 11 mph 1018.9mb 26f
5:00am 14 15 mph 1019mb 26f
4:00am 14 16 mph 1018.9mb 26f
3:00am 18 20 mph 1018.7mb 27f
2:00am 20 22 mph 1018.9mb 27f
1:00am 22 23 mph 1018.9mb 27f
12:00am 22 24 mph 1018.8mb 27f
Fri 02/05 11:00pm 20 22 mph 1019.3mb 27f
10:00pm 25 28 mph 1019.5mb 28f
9:00pm 25 28 mph 1020.1mb 29f
8:00pm 26 28 mph 1020.5mb 28f
7:00pm 21 23 mph 1021.6mb 28f
6:00pm 29 31 mph 1021.9mb 27f
5:00pm 28 30 mph 1022.8mb 26f
4:00pm 21 23 mph 1023.7mb 25f
3:00pm 16 18 mph 1024.9mb 24f
2:00pm 16 18 mph 1025.5mb 24f
1:00pm 15 16 mph 1026.4mb 24f
12:00pm 13 15 mph 1026.9mb 24f
11:00am 9 11 mph 1027.8mb 23f
10:00am 2 3 mph 1028.7mb 22f
9:00am 8 11 mph 1028.8mb 20f
8:00am 9 10 mph 1028.4mb 19f
7:00am 8 10 mph 1028.2mb 16f
6:00am 9 11 mph 1027.7mb 16f